Terminal Aerodrome Forecast
Issued by NWS

Home | Current Version | Previous Version | Text Only | Print | Product List | Glossary On
Versions: 1 2 3 4 5 6 7 8 9 10 11 12 13 14 15 16 17 18 19 20
000
FTUS42 KILM 112000 AAA
TAFCRE
TAF AMD
KCRE 112008Z 1120/1218 VRB04KT P6SM VCSH SCT015 BKN100
      TEMPO 1120/1122 FEW008 BKN015
     FM120200 20006KT P6SM VCSH SCT050 BKN250
     FM121300 VRB04KT P6SM SCT035 BKN250=

USA.gov is the U.S. government's official web portal to all federal, state and local government web resources and services.